createdAt,value
2019-02-17T00:03:37.946Z,0.84
2019-02-17T00:07:43.385Z,0.84
2019-02-17T00:11:49.039Z,0.90
2019-02-17T00:15:54.557Z,0.91
2019-02-17T00:20:03.005Z,0.80
2019-02-17T00:24:08.408Z,0.85
2019-02-17T00:28:14.086Z,0.81
2019-02-17T00:32:19.515Z,0.81
2019-02-17T00:36:25.181Z,0.76
2019-02-17T00:40:30.660Z,0.67
2019-02-17T00:44:35.860Z,0.66
2019-02-17T00:48:41.247Z,0.84
2019-02-17T00:52:46.891Z,0.81
2019-02-17T00:56:52.513Z,0.76
2019-02-17T01:00:57.931Z,0.59
2019-02-17T01:05:03.378Z,0.60
2019-02-17T01:09:09.139Z,0.67
2019-02-17T01:13:14.626Z,0.61
2019-02-17T01:17:20.006Z,0.67
2019-02-17T01:21:25.399Z,0.72
2019-02-17T01:25:30.649Z,0.63
2019-02-17T01:29:36.064Z,0.53
2019-02-17T01:33:41.426Z,0.57
2019-02-17T01:37:46.857Z,0.45
2019-02-17T01:41:52.242Z,0.49
2019-02-17T01:45:58.098Z,0.51
2019-02-17T01:50:03.503Z,0.52
2019-02-17T01:54:08.955Z,0.30
2019-02-17T01:58:14.306Z,0.49
2019-02-17T02:02:19.659Z,0.44
2019-02-17T02:06:25.095Z,0.41
2019-02-17T02:10:30.478Z,0.30
2019-02-17T02:14:36.184Z,0.45
2019-02-17T02:18:41.520Z,0.31
2019-02-17T02:22:46.966Z,0.30
2019-02-17T02:26:52.376Z,0.51
2019-02-17T02:30:57.811Z,0.65
2019-02-17T02:35:03.239Z,0.47
2019-02-17T02:39:09.161Z,0.62
2019-02-17T02:43:14.861Z,0.41
2019-02-17T02:47:20.573Z,0.30
2019-02-17T02:51:25.972Z,0.20
2019-02-17T02:55:31.245Z,0.21
2019-02-17T02:59:36.934Z,0.13
2019-02-17T03:03:42.750Z,0.16
2019-02-17T03:07:48.087Z,0.06
2019-02-17T03:11:53.597Z,0.06
2019-02-17T03:15:58.982Z,0.08
2019-02-17T03:20:04.746Z,-0.12
2019-02-17T03:24:10.180Z,-0.25
2019-02-17T03:28:15.568Z,-0.16
2019-02-17T03:32:20.927Z,-0.20
2019-02-17T03:36:26.261Z,-0.25
2019-02-17T03:40:31.680Z,-0.28
2019-02-17T03:44:36.981Z,-0.29
2019-02-17T03:48:42.362Z,-0.31
2019-02-17T03:52:47.707Z,-0.35
2019-02-17T03:56:53.166Z,-0.31
2019-02-17T04:00:58.905Z,-0.31
2019-02-17T04:05:04.476Z,-0.11
2019-02-17T04:09:10.327Z,-0.06
2019-02-17T04:13:16.157Z,-0.04
2019-02-17T04:17:21.865Z,0.26
2019-02-17T04:21:27.381Z,0.81
2019-02-17T04:25:32.806Z,0.60
2019-02-17T04:29:38.161Z,0.72
2019-02-17T04:33:43.615Z,0.84
2019-02-17T04:37:48.950Z,0.63
2019-02-17T04:41:54.403Z,0.73
2019-02-17T04:46:00.155Z,0.91
2019-02-17T04:50:06.052Z,0.99
2019-02-17T04:54:11.488Z,1.02
2019-02-17T04:58:16.931Z,1.49
2019-02-17T05:02:22.282Z,1.72
2019-02-17T05:06:27.737Z,1.83
2019-02-17T05:10:33.164Z,1.84
2019-02-17T05:14:38.960Z,1.87
2019-02-17T05:18:44.383Z,1.72
2019-02-17T05:22:50.409Z,1.63
2019-02-17T05:26:55.730Z,1.55
2019-02-17T05:31:01.389Z,1.56
2019-02-17T05:35:07.162Z,1.60
2019-02-17T05:39:12.512Z,1.59
2019-02-17T05:43:17.988Z,1.70
2019-02-17T05:47:23.530Z,1.86
2019-02-17T05:51:28.945Z,1.89
2019-02-17T05:55:34.647Z,1.91
2019-02-17T05:59:40.023Z,2.03
2019-02-17T06:03:45.367Z,2.02
2019-02-17T06:07:50.862Z,2.14
2019-02-17T06:11:56.142Z,2.00
2019-02-17T06:16:01.615Z,2.30
2019-02-17T06:20:07.663Z,2.22
2019-02-17T06:24:13.044Z,2.08
2019-02-17T06:28:18.398Z,2.39
2019-02-17T06:32:24.028Z,2.44
2019-02-17T06:36:29.375Z,2.43
2019-02-17T06:40:34.830Z,2.75
2019-02-17T06:44:40.249Z,2.75
2019-02-17T06:48:46.089Z,2.65
2019-02-17T06:52:51.566Z,2.69
2019-02-17T06:57:09.146Z,2.48
2019-02-17T07:01:24.123Z,2.75
2019-02-17T07:05:33.370Z,2.92
2019-02-17T07:09:38.730Z,3.18
2019-02-17T07:13:43.923Z,3.17
2019-02-17T07:17:50.021Z,3.36
2019-02-17T07:21:55.634Z,3.47
2019-02-17T07:26:01.120Z,3.11
2019-02-17T07:30:06.707Z,3.72
2019-02-17T07:34:12.307Z,3.67
2019-02-17T07:38:17.988Z,3.71
2019-02-17T07:42:23.352Z,3.70
2019-02-17T07:46:29.112Z,3.93
2019-02-17T07:50:34.620Z,3.88
2019-02-17T07:54:40.033Z,4.05
2019-02-17T07:58:45.677Z,4.25
2019-02-17T08:02:51.212Z,4.55
2019-02-17T08:06:57.251Z,4.87
2019-02-17T08:11:04.272Z,5.00
2019-02-17T08:15:10.508Z,5.08
2019-02-17T08:19:15.912Z,5.44
2019-02-17T08:23:21.328Z,5.53
2019-02-17T08:27:27.135Z,5.62
2019-02-17T08:31:32.575Z,5.63
2019-02-17T08:35:38.301Z,5.67
2019-02-17T08:39:43.587Z,5.73
2019-02-17T08:43:49.439Z,5.83
2019-02-17T08:47:55.034Z,6.17
2019-02-17T08:52:00.957Z,6.34
2019-02-17T08:56:06.340Z,6.46
2019-02-17T09:00:13.147Z,6.49
2019-02-17T09:04:18.490Z,6.60
2019-02-17T09:08:23.936Z,6.72
2019-02-17T09:12:29.117Z,6.82
2019-02-17T09:16:34.477Z,7.05
2019-02-17T09:20:39.871Z,7.14
2019-02-17T09:24:45.479Z,7.28
2019-02-17T09:28:50.823Z,7.30
2019-02-17T09:32:56.287Z,7.44
2019-02-17T09:37:01.729Z,7.60
2019-02-17T09:41:07.003Z,7.95
2019-02-17T09:45:13.948Z,7.99
2019-02-17T09:49:19.734Z,8.00
2019-02-17T09:53:25.079Z,8.13
2019-02-17T09:57:30.503Z,8.20
2019-02-17T10:01:35.920Z,8.37
2019-02-17T10:05:41.351Z,8.61
2019-02-17T10:09:46.901Z,8.67
2019-02-17T10:13:52.401Z,8.96
2019-02-17T10:17:57.701Z,8.86
2019-02-17T10:22:03.123Z,9.28
2019-02-17T10:26:08.574Z,9.26
2019-02-17T10:30:14.904Z,9.47
2019-02-17T10:34:20.275Z,9.74
2019-02-17T10:38:25.932Z,10.03
2019-02-17T10:42:31.394Z,10.19
2019-02-17T10:46:36.903Z,10.03
2019-02-17T10:50:42.473Z,10.38
2019-02-17T10:54:47.942Z,10.70
2019-02-17T10:58:53.393Z,10.94
2019-02-17T11:03:07.128Z,10.71
2019-02-17T11:07:12.640Z,11.24
2019-02-17T11:11:17.930Z,11.06
2019-02-17T11:15:23.334Z,11.32
2019-02-17T11:19:28.774Z,11.23
2019-02-17T11:23:34.131Z,11.65
2019-02-17T11:27:39.698Z,11.56
2019-02-17T11:31:45.371Z,11.94
2019-02-17T11:35:51.324Z,12.20
2019-02-17T11:39:56.677Z,12.18
2019-02-17T11:44:02.358Z,12.56
2019-02-17T11:48:07.647Z,12.52
2019-02-17T11:52:12.888Z,12.57
2019-02-17T11:56:18.310Z,12.62
2019-02-17T12:00:23.877Z,12.95
2019-02-17T12:04:29.160Z,13.00
2019-02-17T12:08:34.580Z,13.01
2019-02-17T12:12:40.345Z,13.43
2019-02-17T12:16:45.887Z,13.43
2019-02-17T12:21:15.216Z,13.61
2019-02-17T12:25:31.986Z,14.19
2019-02-17T12:29:43.357Z,14.49
2019-02-17T12:33:48.669Z,14.72
2019-02-17T12:37:54.118Z,15.02
2019-02-17T12:41:59.561Z,15.86
2019-02-17T12:46:05.416Z,15.70
2019-02-17T12:50:12.327Z,16.13
2019-02-17T12:54:28.641Z,16.77
2019-02-17T12:58:29.885Z,16.90
2019-02-17T13:02:32.622Z,17.99
2019-02-17T13:06:38.286Z,17.96
2019-02-17T13:10:44.035Z,18.18
2019-02-17T13:14:49.417Z,18.15
2019-02-17T13:18:54.881Z,17.69
2019-02-17T13:23:00.524Z,17.91
2019-02-17T13:27:06.131Z,18.66
2019-02-17T13:31:11.630Z,18.77
2019-02-17T13:35:17.413Z,18.24
2019-02-17T13:39:22.888Z,17.78
2019-02-17T13:43:28.320Z,17.00
2019-02-17T13:47:33.683Z,17.18
2019-02-17T13:51:39.372Z,17.19
2019-02-17T13:55:45.213Z,16.64
2019-02-17T13:59:50.770Z,16.45
2019-02-17T14:03:56.080Z,16.11
2019-02-17T14:08:01.574Z,16.00
2019-02-17T14:12:07.161Z,16.06
2019-02-17T14:16:12.564Z,15.88
2019-02-17T14:20:18.280Z,16.08
2019-02-17T14:24:23.990Z,15.86
2019-02-17T14:28:29.455Z,16.10
2019-02-17T14:32:35.175Z,15.71
2019-02-17T14:36:40.467Z,16.08
2019-02-17T14:40:46.485Z,15.61
2019-02-17T14:44:51.834Z,15.53
2019-02-17T14:48:57.196Z,15.59
2019-02-17T14:53:02.646Z,15.95
2019-02-17T14:57:08.028Z,16.45
2019-02-17T15:01:13.461Z,16.69
2019-02-17T15:05:19.300Z,17.28
2019-02-17T15:09:24.653Z,17.94
2019-02-17T15:13:30.304Z,17.81
2019-02-17T15:17:38.133Z,18.01
2019-02-17T15:21:43.729Z,17.77
2019-02-17T15:25:49.351Z,18.14
2019-02-17T15:29:54.835Z,17.74
2019-02-17T15:34:00.207Z,17.87
2019-02-17T15:38:05.730Z,18.52
2019-02-17T15:42:11.496Z,18.22
2019-02-17T15:46:17.040Z,18.53
2019-02-17T15:50:23.250Z,18.21
2019-02-17T15:54:28.751Z,17.12
2019-02-17T15:58:34.185Z,17.42
2019-02-17T16:02:39.509Z,17.42
2019-02-17T16:06:44.967Z,16.69
2019-02-17T16:10:50.378Z,16.22
2019-02-17T16:14:55.780Z,15.86
2019-02-17T16:19:01.116Z,15.50
2019-02-17T16:23:06.571Z,15.03
2019-02-17T16:27:12.346Z,14.84
2019-02-17T16:31:17.752Z,14.52
2019-02-17T16:35:23.159Z,14.06
2019-02-17T16:39:28.512Z,13.85
2019-02-17T16:43:34.324Z,13.42
2019-02-17T16:47:40.015Z,13.30
2019-02-17T16:51:45.777Z,13.08
2019-02-17T16:55:51.193Z,12.98
2019-02-17T16:59:56.787Z,12.76
2019-02-17T17:04:02.281Z,12.59
2019-02-17T17:08:07.688Z,12.44
2019-02-17T17:12:12.975Z,12.17
2019-02-17T17:16:18.579Z,12.19
2019-02-17T17:20:24.030Z,11.80
2019-02-17T17:24:29.672Z,11.67
2019-02-17T17:28:35.218Z,11.70
2019-02-17T17:32:40.600Z,11.68
2019-02-17T17:36:46.036Z,11.63
2019-02-17T17:40:51.974Z,11.40
2019-02-17T17:44:57.819Z,11.41
2019-02-17T17:49:03.519Z,11.08
2019-02-17T17:53:08.975Z,11.28
2019-02-17T17:57:14.440Z,11.24
2019-02-17T18:01:20.167Z,11.08
2019-02-17T18:05:25.583Z,10.86
2019-02-17T18:09:31.029Z,10.53
2019-02-17T18:13:36.827Z,10.29
2019-02-17T18:17:43.081Z,10.41
2019-02-17T18:21:48.757Z,9.99
2019-02-17T18:25:54.485Z,9.94
2019-02-17T18:29:59.889Z,9.26
2019-02-17T18:34:05.762Z,9.46
2019-02-17T18:38:11.215Z,9.50
2019-02-17T18:42:16.764Z,9.34
2019-02-17T18:46:22.278Z,9.21
2019-02-17T18:50:28.135Z,8.96
2019-02-17T18:54:37.049Z,8.87
2019-02-17T18:58:42.470Z,8.74
2019-02-17T19:02:48.204Z,8.52
2019-02-17T19:06:53.654Z,8.63
2019-02-17T19:10:59.128Z,8.25
2019-02-17T19:15:04.597Z,8.20
2019-02-17T19:19:10.073Z,8.14
2019-02-17T19:23:15.703Z,8.33
2019-02-17T19:27:21.148Z,7.93
2019-02-17T19:31:26.852Z,7.68
2019-02-17T19:35:41.417Z,7.68
2019-02-17T19:39:39.547Z,7.59
2019-02-17T19:43:44.901Z,7.54
2019-02-17T19:47:50.322Z,7.18
2019-02-17T19:51:55.736Z,7.41
2019-02-17T19:56:00.956Z,7.40
2019-02-17T20:00:10.596Z,7.06
2019-02-17T20:04:28.910Z,6.95
2019-02-17T20:08:34.851Z,6.83
2019-02-17T20:12:40.386Z,6.65
2019-02-17T20:16:45.806Z,6.48
2019-02-17T20:20:51.242Z,6.28
2019-02-17T20:24:56.914Z,6.63
2019-02-17T20:29:02.289Z,6.33
2019-02-17T20:33:08.570Z,6.18
2019-02-17T20:37:13.922Z,5.94
2019-02-17T20:41:19.246Z,6.18
2019-02-17T20:45:24.717Z,6.04
2019-02-17T20:49:30.499Z,6.03
2019-02-17T20:53:36.146Z,5.96
2019-02-17T20:57:41.825Z,5.94
2019-02-17T21:01:47.271Z,5.78
2019-02-17T21:05:52.698Z,5.87
2019-02-17T21:09:58.380Z,5.49
2019-02-17T21:14:03.842Z,5.37
2019-02-17T21:18:09.435Z,5.22
2019-02-17T21:22:14.944Z,5.26
2019-02-17T21:26:25.992Z,5.02
2019-02-17T21:30:27.649Z,4.87
2019-02-17T21:34:32.983Z,4.78
2019-02-17T21:38:38.402Z,4.47
2019-02-17T21:42:43.937Z,4.46
2019-02-17T21:46:49.433Z,4.39
2019-02-17T21:50:54.949Z,4.20
2019-02-17T21:55:00.536Z,4.29
2019-02-17T21:59:05.971Z,4.21
2019-02-17T22:03:11.421Z,4.12
2019-02-17T22:07:16.849Z,4.15
2019-02-17T22:11:22.135Z,4.21
2019-02-17T22:15:27.569Z,4.03
2019-02-17T22:19:32.908Z,3.92
2019-02-17T22:23:40.068Z,3.83
2019-02-17T22:27:45.560Z,3.72
2019-02-17T22:31:50.910Z,3.62
2019-02-17T22:35:56.363Z,3.56
2019-02-17T22:40:01.715Z,3.26
2019-02-17T22:44:07.159Z,3.31
2019-02-17T22:48:12.568Z,3.30
2019-02-17T22:52:18.030Z,3.24
2019-02-17T22:56:23.444Z,3.26
2019-02-17T23:00:59.987Z,3.15
2019-02-17T23:05:05.911Z,3.03
2019-02-17T23:09:11.366Z,2.98
2019-02-17T23:13:17.096Z,2.93
2019-02-17T23:17:22.700Z,2.90
2019-02-17T23:21:28.399Z,2.83
2019-02-17T23:25:33.831Z,2.81
2019-02-17T23:29:39.667Z,2.71
2019-02-17T23:33:45.039Z,2.67
2019-02-17T23:37:50.469Z,2.64
2019-02-17T23:41:55.895Z,2.56
2019-02-17T23:46:01.350Z,2.56
2019-02-17T23:50:07.236Z,2.53
2019-02-17T23:54:12.683Z,2.37
2019-02-17T23:58:18.099Z,2.36
